createdAt,value
2023-04-17T00:01:56.752Z,6.51
2023-04-17T00:04:23.968Z,6.48
2023-04-17T00:06:54.044Z,6.44
2023-04-17T00:09:21.055Z,6.46
2023-04-17T00:11:48.345Z,6.45
2023-04-17T00:14:15.482Z,6.43
2023-04-17T00:16:42.510Z,6.43
2023-04-17T00:19:09.685Z,6.37
2023-04-17T00:21:36.929Z,6.33
2023-04-17T00:24:03.953Z,6.30
2023-04-17T00:26:32.490Z,6.23
2023-04-17T00:28:59.605Z,6.26
2023-04-17T00:31:26.727Z,6.20
2023-04-17T00:33:53.809Z,6.19
2023-04-17T00:36:20.889Z,6.18
2023-04-17T00:38:47.833Z,6.22
2023-04-17T00:41:14.880Z,6.23
2023-04-17T00:43:42.519Z,6.18
2023-04-17T00:46:10.545Z,6.17
2023-04-17T00:48:37.783Z,6.19
2023-04-17T00:51:05.155Z,6.14
2023-04-17T00:53:33.881Z,6.05
2023-04-17T00:56:03.245Z,6.08
2023-04-17T00:58:30.584Z,6.07
2023-04-17T01:00:58.135Z,6.03
2023-04-17T01:03:25.422Z,6.06
2023-04-17T01:05:59.130Z,6.08
2023-04-17T01:08:26.316Z,6.08
2023-04-17T01:10:53.571Z,6.08
2023-04-17T01:13:22.911Z,6.11
2023-04-17T01:15:51.892Z,6.06
2023-04-17T01:18:18.862Z,6.05
2023-04-17T01:20:48.448Z,6.05
2023-04-17T01:23:15.965Z,6.02
2023-04-17T01:25:46.818Z,6.02
2023-04-17T01:28:14.017Z,5.98
2023-04-17T01:31:07.689Z,6.01
2023-04-17T01:33:34.774Z,5.99
2023-04-17T01:36:04.938Z,6.00
2023-04-17T01:38:31.954Z,5.99
2023-04-17T01:41:06.037Z,5.95
2023-04-17T01:43:33.337Z,5.92
2023-04-17T01:46:00.541Z,5.90
2023-04-17T01:48:28.029Z,5.85
2023-04-17T01:50:56.857Z,5.83
2023-04-17T01:53:24.029Z,5.86
2023-04-17T01:55:51.038Z,5.85
2023-04-17T01:58:18.113Z,5.84
2023-04-17T02:00:48.874Z,5.82
2023-04-17T02:03:16.880Z,5.88
2023-04-17T02:05:47.438Z,5.91
2023-04-17T02:08:14.647Z,5.92
2023-04-17T02:10:42.715Z,5.92
2023-04-17T02:13:12.773Z,5.87
2023-04-17T02:15:43.889Z,5.85
2023-04-17T02:18:11.654Z,5.85
2023-04-17T02:20:43.519Z,5.84
2023-04-17T02:23:11.222Z,5.84
2023-04-17T02:25:38.351Z,5.88
2023-04-17T02:28:06.402Z,5.88
2023-04-17T02:30:37.810Z,5.90
2023-04-17T02:33:05.024Z,5.94
2023-04-17T02:35:32.882Z,5.95
2023-04-17T02:38:03.461Z,6.01
2023-04-17T02:40:35.742Z,6.02
2023-04-17T02:43:03.078Z,6.03
2023-04-17T02:45:31.046Z,6.03
2023-04-17T02:47:58.313Z,6.06
2023-04-17T02:50:25.383Z,6.10
2023-04-17T02:53:06.724Z,6.12
2023-04-17T02:55:33.837Z,6.12
2023-04-17T02:58:01.066Z,6.12
2023-04-17T03:00:29.543Z,6.10
2023-04-17T03:02:57.621Z,6.12
2023-04-17T03:05:30.433Z,6.12
2023-04-17T03:07:59.961Z,6.11
2023-04-17T03:10:31.464Z,6.12
2023-04-17T03:13:02.355Z,6.10
2023-04-17T03:15:29.344Z,6.06
2023-04-17T03:17:56.493Z,6.14
2023-04-17T03:20:23.542Z,6.16
2023-04-17T03:22:50.666Z,6.20
2023-04-17T03:25:17.633Z,6.26
2023-04-17T03:27:52.358Z,6.29
2023-04-17T03:30:25.868Z,6.29
2023-04-17T03:32:56.396Z,6.24
2023-04-17T03:35:26.343Z,6.15
2023-04-17T03:37:56.123Z,6.15
2023-04-17T03:40:23.803Z,6.15
2023-04-17T03:42:51.034Z,6.13
2023-04-17T03:45:21.336Z,6.16
2023-04-17T03:47:48.475Z,6.13
2023-04-17T03:50:15.968Z,6.15
2023-04-17T03:52:50.048Z,6.10
2023-04-17T03:55:34.154Z,6.13
2023-04-17T03:58:01.369Z,6.11
2023-04-17T04:00:31.945Z,6.17
2023-04-17T04:03:06.911Z,6.36
2023-04-17T04:05:39.506Z,6.55
2023-04-17T04:08:16.119Z,6.58
2023-04-17T04:10:54.298Z,6.59
2023-04-17T04:13:28.864Z,6.57
2023-04-17T04:16:48.235Z,6.60
2023-04-17T04:19:48.250Z,6.71
2023-04-17T04:22:16.787Z,6.75
2023-04-17T04:24:53.894Z,6.83
2023-04-17T04:27:27.834Z,6.97
2023-04-17T04:29:58.948Z,7.09
2023-04-17T04:32:28.590Z,7.22
2023-04-17T04:35:21.156Z,7.30
2023-04-17T04:37:48.296Z,7.38
2023-04-17T04:40:16.001Z,7.44
2023-04-17T04:42:51.775Z,7.39
2023-04-17T04:45:42.439Z,7.50
2023-04-17T04:48:09.784Z,7.62
2023-04-17T04:50:39.419Z,7.76
2023-04-17T04:53:06.830Z,7.76
2023-04-17T04:55:49.222Z,7.82
2023-04-17T04:58:35.076Z,7.81
2023-04-17T05:01:04.356Z,8.00
2023-04-17T05:03:39.359Z,8.09
2023-04-17T05:06:09.670Z,8.28
2023-04-17T05:08:45.189Z,8.38
2023-04-17T05:11:15.604Z,8.45
2023-04-17T05:13:43.752Z,8.37
2023-04-17T05:16:24.746Z,8.31
2023-04-17T05:18:52.720Z,8.24
2023-04-17T05:21:31.161Z,8.16
2023-04-17T05:23:58.856Z,8.04
2023-04-17T05:26:27.643Z,7.89
2023-04-17T05:28:55.014Z,7.89
2023-04-17T05:31:27.350Z,7.78
2023-04-17T05:33:55.964Z,7.97
2023-04-17T05:36:25.887Z,8.50
2023-04-17T05:38:57.042Z,9.28
2023-04-17T05:41:24.132Z,9.26
2023-04-17T05:43:51.310Z,9.18
2023-04-17T05:46:18.541Z,9.09
2023-04-17T05:48:46.128Z,9.16
2023-04-17T05:51:13.586Z,9.35
2023-04-17T05:53:41.079Z,9.55
2023-04-17T05:56:08.188Z,9.57
2023-04-17T05:58:36.344Z,9.54
2023-04-17T06:01:06.583Z,9.62
2023-04-17T06:03:34.575Z,9.61
2023-04-17T06:06:19.274Z,9.72
2023-04-17T06:08:46.593Z,9.74
2023-04-17T06:11:17.311Z,9.94
2023-04-17T06:13:45.141Z,10.18
2023-04-17T06:16:12.256Z,10.23
2023-04-17T06:18:40.740Z,10.29
2023-04-17T06:21:08.135Z,10.13
2023-04-17T06:23:36.514Z,10.19
2023-04-17T06:26:03.603Z,10.19
2023-04-17T06:28:31.096Z,10.26
2023-04-17T06:30:59.705Z,10.21
2023-04-17T06:33:26.999Z,10.22
2023-04-17T06:35:55.562Z,10.36
2023-04-17T06:38:39.660Z,10.43
2023-04-17T06:41:07.749Z,10.58
2023-04-17T06:43:36.120Z,10.63
2023-04-17T06:46:12.792Z,10.94
2023-04-17T06:48:39.902Z,11.06
2023-04-17T06:51:07.464Z,11.18
2023-04-17T06:53:37.271Z,11.42
2023-04-17T06:56:04.763Z,11.61
2023-04-17T06:58:34.133Z,11.69
2023-04-17T07:01:04.252Z,11.62
2023-04-17T07:03:32.518Z,11.58
2023-04-17T07:06:02.453Z,11.28
2023-04-17T07:08:29.493Z,11.10
2023-04-17T07:11:02.311Z,11.17
2023-04-17T07:13:35.889Z,11.25
2023-04-17T07:16:03.912Z,11.28
2023-04-17T07:18:31.074Z,11.28
2023-04-17T07:20:58.431Z,11.39
2023-04-17T07:23:25.466Z,11.43
2023-04-17T07:25:56.627Z,11.63
2023-04-17T07:28:26.604Z,11.79
2023-04-17T07:30:55.185Z,11.97
2023-04-17T07:33:22.322Z,12.12
2023-04-17T07:35:49.414Z,12.15
2023-04-17T07:38:17.151Z,12.70
2023-04-17T07:40:44.304Z,13.17
2023-04-17T07:43:11.933Z,13.30
2023-04-17T07:45:41.636Z,12.65
2023-04-17T07:48:12.309Z,12.23
2023-04-17T07:50:42.987Z,12.38
2023-04-17T07:53:10.550Z,12.53
2023-04-17T07:55:37.916Z,12.92
2023-04-17T07:58:06.532Z,13.24
2023-04-17T08:00:34.541Z,13.33
2023-04-17T08:03:02.327Z,13.50
2023-04-17T08:05:30.103Z,13.08
2023-04-17T08:07:58.108Z,12.73
2023-04-17T08:10:30.294Z,12.46
2023-04-17T08:12:57.463Z,13.00
2023-04-17T08:15:27.426Z,13.53
2023-04-17T08:17:56.782Z,13.71
2023-04-17T08:20:24.592Z,14.21
2023-04-17T08:22:52.115Z,14.70
2023-04-17T08:25:22.121Z,15.36
2023-04-17T08:27:49.210Z,15.30
2023-04-17T08:30:19.098Z,15.22
2023-04-17T08:32:52.521Z,15.81
2023-04-17T08:35:20.840Z,16.06
2023-04-17T08:37:50.711Z,15.39
2023-04-17T08:40:18.938Z,15.20
2023-04-17T08:42:48.207Z,15.28
2023-04-17T08:45:16.443Z,15.16
2023-04-17T08:47:44.858Z,15.49
2023-04-17T08:50:14.263Z,15.76
2023-04-17T08:52:49.231Z,15.80
2023-04-17T08:55:25.254Z,16.09
2023-04-17T08:58:07.730Z,15.95
2023-04-17T09:00:40.942Z,15.92
2023-04-17T09:03:11.320Z,15.88
2023-04-17T09:05:41.980Z,16.17
2023-04-17T09:08:10.096Z,16.20
2023-04-17T09:10:51.825Z,16.15
2023-04-17T09:13:25.989Z,15.87
2023-04-17T09:16:20.167Z,15.38
2023-04-17T09:18:48.001Z,15.29
2023-04-17T09:21:18.969Z,15.04
2023-04-17T09:23:51.379Z,15.27
2023-04-17T09:26:19.737Z,15.98
2023-04-17T09:29:12.376Z,15.86
2023-04-17T09:31:41.615Z,16.25
2023-04-17T09:34:15.594Z,16.95
2023-04-17T09:36:45.575Z,16.77
2023-04-17T09:39:21.295Z,17.55
2023-04-17T09:41:48.353Z,18.41
2023-04-17T09:44:27.280Z,18.35
2023-04-17T09:46:54.865Z,16.80
2023-04-17T09:49:42.316Z,16.94
2023-04-17T09:52:09.953Z,17.23
2023-04-17T09:54:38.266Z,17.47
2023-04-17T09:57:10.351Z,17.10
2023-04-17T09:59:43.109Z,16.63
2023-04-17T10:02:13.325Z,16.18
2023-04-17T10:04:41.977Z,15.86
2023-04-17T10:07:09.578Z,15.66
2023-04-17T10:09:44.159Z,15.38
2023-04-17T10:12:19.009Z,15.24
2023-04-17T10:14:49.257Z,15.34
2023-04-17T10:17:23.802Z,15.72
2023-04-17T10:20:20.308Z,15.62
2023-04-17T10:22:56.792Z,15.28
2023-04-17T10:25:25.471Z,15.10
2023-04-17T10:28:00.964Z,14.69
2023-04-17T10:30:54.729Z,14.78
2023-04-17T10:33:25.849Z,14.89
2023-04-17T10:38:45.663Z,15.25
2023-04-17T10:41:12.659Z,15.51
2023-04-17T10:43:41.664Z,15.15
2023-04-17T10:46:13.077Z,14.87
2023-04-17T10:48:52.691Z,15.25
2023-04-17T10:51:27.866Z,15.63
2023-04-17T10:54:00.262Z,15.93
2023-04-17T10:56:35.575Z,16.08
2023-04-17T10:59:05.465Z,16.15
2023-04-17T11:01:48.226Z,16.43
2023-04-17T11:04:33.186Z,16.14
2023-04-17T11:07:01.122Z,16.18
2023-04-17T11:09:29.641Z,17.01
2023-04-17T11:11:59.705Z,16.99
2023-04-17T11:14:26.852Z,16.98
2023-04-17T11:17:15.580Z,17.45
2023-04-17T11:19:43.310Z,18.60
2023-04-17T11:22:11.744Z,19.79
2023-04-17T11:24:38.684Z,20.86
2023-04-17T11:27:07.224Z,20.98
2023-04-17T11:29:34.397Z,18.99
2023-04-17T11:32:01.540Z,19.56
2023-04-17T11:34:31.797Z,19.67
2023-04-17T11:37:00.642Z,19.37
2023-04-17T11:39:33.601Z,18.43
2023-04-17T11:42:02.645Z,17.26
2023-04-17T11:44:29.941Z,17.09
2023-04-17T11:47:24.314Z,17.43
2023-04-17T11:49:52.720Z,17.74
2023-04-17T11:52:22.316Z,19.00
2023-04-17T11:54:57.741Z,18.07
2023-04-17T11:57:24.721Z,18.34
2023-04-17T11:59:51.787Z,18.55
2023-04-17T12:02:33.765Z,18.16
2023-04-17T12:05:17.796Z,18.03
2023-04-17T12:08:05.885Z,17.43
2023-04-17T12:10:45.625Z,17.43
2023-04-17T12:13:13.164Z,17.44
2023-04-17T12:15:40.363Z,17.04
2023-04-17T12:18:09.026Z,17.40
2023-04-17T12:20:58.046Z,17.87
2023-04-17T12:23:46.575Z,18.27
2023-04-17T12:26:17.719Z,18.69
2023-04-17T12:28:45.018Z,19.24
2023-04-17T12:31:12.826Z,20.13
2023-04-17T12:33:40.747Z,20.42
2023-04-17T12:36:08.132Z,21.86
2023-04-17T12:38:36.325Z,21.50
2023-04-17T12:41:04.794Z,20.60
2023-04-17T12:43:33.721Z,20.13
2023-04-17T12:46:01.695Z,19.39
2023-04-17T12:48:30.770Z,19.85
2023-04-17T12:51:02.589Z,20.32
2023-04-17T12:53:30.417Z,20.65
2023-04-17T12:55:58.690Z,20.49
2023-04-17T12:58:25.982Z,19.74
2023-04-17T13:00:56.064Z,18.45
2023-04-17T13:03:47.735Z,17.07
2023-04-17T13:06:16.991Z,17.26
2023-04-17T13:08:49.965Z,16.97
2023-04-17T13:11:17.290Z,16.60
2023-04-17T13:13:47.184Z,18.14
2023-04-17T13:16:14.400Z,19.69
2023-04-17T13:18:41.523Z,20.46
2023-04-17T13:21:09.430Z,20.00
2023-04-17T13:23:39.349Z,18.70
2023-04-17T13:26:06.524Z,17.48
2023-04-17T13:28:35.926Z,16.45
2023-04-17T13:31:03.106Z,15.39
2023-04-17T13:33:32.100Z,15.37
2023-04-17T13:36:03.193Z,16.06
2023-04-17T13:38:31.052Z,16.15
2023-04-17T13:41:01.039Z,16.12
2023-04-17T13:43:30.775Z,16.07
2023-04-17T13:45:59.678Z,15.94
2023-04-17T13:48:26.790Z,15.89
2023-04-17T13:50:54.407Z,15.31
2023-04-17T13:53:24.000Z,15.01
2023-04-17T13:55:52.215Z,14.98
2023-04-17T13:58:19.510Z,14.57
2023-04-17T14:00:46.866Z,14.24
2023-04-17T14:03:14.301Z,14.23
2023-04-17T14:05:47.170Z,14.17
2023-04-17T14:08:17.086Z,14.06
2023-04-17T14:10:46.345Z,13.92
2023-04-17T14:13:13.302Z,13.76
2023-04-17T14:15:42.020Z,13.73
2023-04-17T14:18:10.927Z,13.80
2023-04-17T14:20:38.234Z,13.84
2023-04-17T14:23:07.448Z,13.72
2023-04-17T14:25:37.615Z,13.69
2023-04-17T14:28:04.798Z,13.51
2023-04-17T14:30:32.012Z,13.27
2023-04-17T14:33:00.923Z,13.23
2023-04-17T14:35:29.523Z,13.22
2023-04-17T14:37:56.652Z,13.17
2023-04-17T14:40:23.693Z,13.17
2023-04-17T14:42:54.566Z,13.12
2023-04-17T14:45:22.144Z,12.96
2023-04-17T14:47:49.612Z,12.91
2023-04-17T14:50:17.771Z,12.86
2023-04-17T14:52:44.892Z,12.89
2023-04-17T14:55:18.427Z,12.88
2023-04-17T14:58:06.361Z,13.06
2023-04-17T15:01:00.399Z,13.07
2023-04-17T15:03:32.712Z,12.95
2023-04-17T15:06:01.611Z,12.85
2023-04-17T15:08:35.088Z,12.93
2023-04-17T15:11:02.282Z,12.87
2023-04-17T15:13:29.548Z,12.70
2023-04-17T15:15:59.054Z,12.69
2023-04-17T15:18:29.187Z,12.74
2023-04-17T15:20:56.655Z,12.60
2023-04-17T15:23:28.173Z,12.49
2023-04-17T15:25:57.715Z,12.46
2023-04-17T15:28:25.489Z,12.36
2023-04-17T15:30:54.968Z,12.21
2023-04-17T15:33:22.386Z,12.12
2023-04-17T15:35:55.513Z,12.07
2023-04-17T15:38:27.747Z,12.03
2023-04-17T15:40:55.820Z,12.03
2023-04-17T15:43:27.851Z,12.04
2023-04-17T15:45:55.243Z,12.00
2023-04-17T15:48:22.856Z,11.95
2023-04-17T15:50:50.768Z,12.03
2023-04-17T15:53:18.093Z,12.01
2023-04-17T15:55:45.152Z,12.11
2023-04-17T15:58:14.243Z,12.19
2023-04-17T16:00:42.558Z,12.13
2023-04-17T16:03:09.904Z,12.11
2023-04-17T16:05:37.197Z,12.03
2023-04-17T16:08:23.118Z,11.95
2023-04-17T16:10:50.370Z,11.87
2023-04-17T16:13:19.558Z,11.83
2023-04-17T16:15:46.624Z,11.75
2023-04-17T16:18:16.419Z,11.70
2023-04-17T16:20:44.432Z,11.68
2023-04-17T16:23:21.291Z,11.64
2023-04-17T16:25:50.342Z,11.62
2023-04-17T16:28:17.594Z,11.60
2023-04-17T16:30:44.746Z,11.60
2023-04-17T16:33:12.159Z,11.56
2023-04-17T16:35:39.219Z,11.47
2023-04-17T16:38:06.511Z,11.50
2023-04-17T16:40:33.989Z,11.52
2023-04-17T16:43:01.596Z,11.52
2023-04-17T16:45:30.474Z,11.50
2023-04-17T16:47:57.683Z,11.50
2023-04-17T16:50:25.748Z,11.42
2023-04-17T16:52:59.584Z,11.44
2023-04-17T16:55:29.360Z,11.38
2023-04-17T16:57:57.414Z,11.39
2023-04-17T17:00:25.138Z,11.31
2023-04-17T17:02:54.884Z,11.31
2023-04-17T17:05:22.341Z,11.29
2023-04-17T17:07:49.493Z,11.25
2023-04-17T17:10:17.277Z,11.23
2023-04-17T17:12:44.426Z,11.18
2023-04-17T17:15:11.631Z,11.24
2023-04-17T17:17:57.239Z,11.20
2023-04-17T17:20:27.751Z,11.16
2023-04-17T17:22:54.982Z,11.17
2023-04-17T17:25:23.271Z,11.05
2023-04-17T17:27:50.809Z,11.12
2023-04-17T17:30:17.934Z,11.08
2023-04-17T17:32:50.653Z,11.05
2023-04-17T17:35:21.303Z,11.00
2023-04-17T17:37:48.499Z,10.99
2023-04-17T17:40:15.680Z,10.94
2023-04-17T17:42:42.743Z,11.02
2023-04-17T17:45:10.313Z,10.91
2023-04-17T17:47:37.551Z,10.93
2023-04-17T17:50:06.551Z,10.87
2023-04-17T17:52:33.625Z,10.89
2023-04-17T17:55:00.978Z,10.88
2023-04-17T17:57:35.682Z,10.81
2023-04-17T18:00:10.262Z,10.90
2023-04-17T18:02:37.355Z,10.83
2023-04-17T18:05:06.588Z,10.92
2023-04-17T18:07:33.790Z,10.83
2023-04-17T18:10:01.278Z,10.87
2023-04-17T18:12:31.384Z,10.81
2023-04-17T18:15:24.895Z,10.79
2023-04-17T18:17:54.620Z,10.75
2023-04-17T18:20:22.381Z,10.77
2023-04-17T18:22:49.834Z,10.68
2023-04-17T18:25:16.838Z,10.76
2023-04-17T18:27:45.454Z,10.72
2023-04-17T18:30:13.455Z,10.68
2023-04-17T18:32:58.974Z,10.67
2023-04-17T18:35:26.099Z,10.62
2023-04-17T18:37:53.330Z,10.59
2023-04-17T18:40:21.053Z,10.59
2023-04-17T18:42:47.985Z,10.55
2023-04-17T18:45:18.928Z,10.56
2023-04-17T18:47:46.054Z,10.55
2023-04-17T18:50:14.937Z,10.52
2023-04-17T18:52:46.220Z,10.52
2023-04-17T18:55:17.662Z,10.46
2023-04-17T18:57:48.825Z,10.42
2023-04-17T19:00:26.520Z,10.44
2023-04-17T19:03:02.007Z,10.38
2023-04-17T19:05:29.466Z,10.39
2023-04-17T19:08:01.580Z,10.25
2023-04-17T19:10:30.093Z,10.26
2023-04-17T19:12:59.557Z,10.27
2023-04-17T19:15:27.868Z,10.27
2023-04-17T19:17:57.833Z,10.27
2023-04-17T19:20:24.934Z,10.28
2023-04-17T19:22:52.261Z,10.28
2023-04-17T19:25:22.443Z,10.25
2023-04-17T19:27:50.264Z,10.26
2023-04-17T19:30:18.466Z,10.27
2023-04-17T19:32:51.042Z,10.21
2023-04-17T19:35:18.749Z,10.17
2023-04-17T19:37:48.729Z,10.17
2023-04-17T19:40:25.125Z,10.13
2023-04-17T19:42:54.087Z,10.18
2023-04-17T19:45:22.127Z,10.18
2023-04-17T19:47:55.188Z,10.14
2023-04-17T19:50:29.864Z,10.15
2023-04-17T19:53:15.644Z,10.11
2023-04-17T19:55:43.535Z,10.14
2023-04-17T19:58:11.687Z,10.15
2023-04-17T20:00:41.961Z,10.13
2023-04-17T20:03:09.990Z,10.13
2023-04-17T20:05:40.893Z,10.13
2023-04-17T20:08:10.507Z,10.12
2023-04-17T20:10:37.788Z,10.02
2023-04-17T20:13:07.000Z,10.07
2023-04-17T20:15:37.892Z,10.07
2023-04-17T20:18:10.044Z,10.05
2023-04-17T20:20:37.694Z,10.04
2023-04-17T20:23:04.798Z,10.01
2023-04-17T20:25:32.409Z,10.00
2023-04-17T20:28:20.902Z,9.98
2023-04-17T20:30:48.112Z,9.94
2023-04-17T20:33:15.224Z,9.90
2023-04-17T20:35:42.419Z,9.89
2023-04-17T20:38:09.541Z,9.83
2023-04-17T20:40:36.634Z,9.80
2023-04-17T20:43:03.664Z,9.80
2023-04-17T20:45:30.850Z,9.79
2023-04-17T20:47:57.834Z,9.80
2023-04-17T20:50:25.568Z,9.78
2023-04-17T20:52:52.708Z,9.78
2023-04-17T20:55:20.305Z,9.75
2023-04-17T20:57:48.087Z,9.78
2023-04-17T21:00:16.229Z,9.80
2023-04-17T21:02:43.814Z,9.81
2023-04-17T21:05:11.086Z,9.75
2023-04-17T21:07:38.626Z,9.72
2023-04-17T21:10:06.735Z,9.64
2023-04-17T21:12:35.380Z,9.62
2023-04-17T21:15:02.774Z,9.60
2023-04-17T21:17:32.733Z,9.59
2023-04-17T21:19:59.980Z,9.60
2023-04-17T21:22:27.555Z,9.59
2023-04-17T21:24:54.513Z,9.62
2023-04-17T21:27:21.492Z,9.59
2023-04-17T21:29:49.515Z,9.54
2023-04-17T21:32:16.624Z,9.52
2023-04-17T21:34:46.140Z,9.50
2023-04-17T21:37:13.894Z,9.48
2023-04-17T21:39:41.137Z,9.49
2023-04-17T21:42:09.835Z,9.49
2023-04-17T21:44:36.977Z,9.43
2023-04-17T21:47:04.090Z,9.42
2023-04-17T21:49:31.273Z,9.42
2023-04-17T21:51:58.329Z,9.41
2023-04-17T21:54:31.265Z,9.36
2023-04-17T21:56:58.243Z,9.32
2023-04-17T21:59:25.329Z,9.29
2023-04-17T22:01:52.384Z,9.29
2023-04-17T22:04:22.194Z,9.29
2023-04-17T22:06:51.775Z,9.27
2023-04-17T22:09:20.016Z,9.27
2023-04-17T22:11:47.735Z,9.25
2023-04-17T22:14:15.854Z,9.23
2023-04-17T22:16:43.449Z,9.21
2023-04-17T22:19:13.300Z,9.20
2023-04-17T22:21:40.266Z,9.15
2023-04-17T22:24:07.796Z,9.16
2023-04-17T22:26:34.946Z,9.13
2023-04-17T22:29:01.949Z,9.11
2023-04-17T22:31:31.094Z,9.07
2023-04-17T22:33:58.255Z,9.10
2023-04-17T22:36:25.261Z,9.10
2023-04-17T22:38:52.288Z,9.10
2023-04-17T22:41:21.571Z,9.08
2023-04-17T22:43:51.893Z,9.09
2023-04-17T22:46:18.836Z,9.12
2023-04-17T22:48:46.285Z,9.09
2023-04-17T22:51:14.337Z,9.09
2023-04-17T22:53:42.287Z,9.06
2023-04-17T22:56:12.396Z,8.99
2023-04-17T22:58:42.389Z,8.94
2023-04-17T23:01:14.807Z,8.90
2023-04-17T23:03:42.213Z,8.89
2023-04-17T23:06:11.314Z,8.92
2023-04-17T23:08:38.345Z,8.90
2023-04-17T23:11:07.913Z,8.84
2023-04-17T23:13:35.027Z,8.84
2023-04-17T23:16:02.081Z,8.84
2023-04-17T23:18:32.012Z,8.83
2023-04-17T23:21:01.727Z,8.79
2023-04-17T23:23:29.737Z,8.78
2023-04-17T23:25:56.735Z,8.76
2023-04-17T23:28:30.433Z,8.74
2023-04-17T23:30:58.127Z,8.68
2023-04-17T23:33:28.190Z,8.64
2023-04-17T23:35:55.159Z,8.61
2023-04-17T23:38:22.224Z,8.64
2023-04-17T23:40:52.134Z,8.67
2023-04-17T23:43:19.212Z,8.70
2023-04-17T23:45:48.748Z,8.73
2023-04-17T23:48:15.872Z,8.77
2023-04-17T23:50:43.046Z,8.75
2023-04-17T23:53:09.958Z,8.75
2023-04-17T23:55:37.175Z,8.70
2023-04-17T23:58:04.355Z,8.71
